createdAt,value
2023-04-14T00:00:28.135Z,4.70
2023-04-14T00:02:56.136Z,4.67
2023-04-14T00:05:24.080Z,4.65
2023-04-14T00:07:51.685Z,4.65
2023-04-14T00:10:19.926Z,4.66
2023-04-14T00:12:47.699Z,4.63
2023-04-14T00:15:16.969Z,4.64
2023-04-14T00:17:44.933Z,4.68
2023-04-14T00:20:12.740Z,4.61
2023-04-14T00:22:40.508Z,4.57
2023-04-14T00:25:08.735Z,4.62
2023-04-14T00:27:36.371Z,4.56
2023-04-14T00:30:05.446Z,4.50
2023-04-14T00:32:34.511Z,4.56
2023-04-14T00:35:03.491Z,4.48
2023-04-14T00:37:31.481Z,4.30
2023-04-14T00:39:59.425Z,4.05
2023-04-14T00:42:27.252Z,4.05
2023-04-14T00:44:54.874Z,4.02
2023-04-14T00:47:23.781Z,3.97
2023-04-14T00:49:52.803Z,3.93
2023-04-14T00:52:23.918Z,3.88
2023-04-14T00:54:51.801Z,3.86
2023-04-14T00:57:20.003Z,3.89
2023-04-14T00:59:47.711Z,3.94
2023-04-14T01:02:15.417Z,3.91
2023-04-14T01:04:53.739Z,3.81
2023-04-14T01:07:25.512Z,3.77
2023-04-14T01:09:55.779Z,3.76
2023-04-14T01:12:32.519Z,3.77
2023-04-14T01:15:09.904Z,3.79
2023-04-14T01:17:45.791Z,3.59
2023-04-14T01:20:20.704Z,3.59
2023-04-14T01:22:54.658Z,3.44
2023-04-14T01:25:43.752Z,3.44
2023-04-14T01:28:29.108Z,3.31
2023-04-14T01:31:07.251Z,3.15
2023-04-14T01:33:39.616Z,3.14
2023-04-14T01:36:11.271Z,3.14
2023-04-14T01:38:41.960Z,3.07
2023-04-14T01:41:12.299Z,2.97
2023-04-14T01:43:43.270Z,2.91
2023-04-14T01:46:15.447Z,2.88
2023-04-14T01:48:46.183Z,3.01
2023-04-14T01:51:18.461Z,2.99
2023-04-14T01:53:47.410Z,2.99
2023-04-14T01:56:17.396Z,3.03
2023-04-14T01:58:47.594Z,3.05
2023-04-14T02:01:17.229Z,3.06
2023-04-14T02:03:49.434Z,3.00
2023-04-14T02:06:18.999Z,3.03
2023-04-14T02:08:47.800Z,3.05
2023-04-14T02:11:16.829Z,3.06
2023-04-14T02:13:44.877Z,3.07
2023-04-14T02:16:13.812Z,3.07
2023-04-14T02:18:42.480Z,3.01
2023-04-14T02:21:14.576Z,2.99
2023-04-14T02:23:42.301Z,2.97
2023-04-14T02:26:17.892Z,3.00
2023-04-14T02:28:51.466Z,2.89
2023-04-14T02:31:23.855Z,2.84
2023-04-14T02:33:55.658Z,2.84
2023-04-14T02:36:32.310Z,2.87
2023-04-14T02:39:03.551Z,2.94
2023-04-14T02:41:32.484Z,2.92
2023-04-14T02:44:06.336Z,2.91
2023-04-14T02:46:38.533Z,2.96
2023-04-14T02:49:07.875Z,2.92
2023-04-14T02:51:39.671Z,2.87
2023-04-14T02:54:08.022Z,2.81
2023-04-14T02:56:36.447Z,2.86
2023-04-14T02:59:05.457Z,2.92
2023-04-14T03:01:34.748Z,2.96
2023-04-14T03:04:03.352Z,2.96
2023-04-14T03:06:33.171Z,2.95
2023-04-14T03:09:03.367Z,3.00
2023-04-14T03:11:32.714Z,2.96
2023-04-14T03:14:01.299Z,2.94
2023-04-14T03:16:30.710Z,2.93
2023-04-14T03:18:59.492Z,2.88
2023-04-14T03:21:28.579Z,2.80
2023-04-14T03:23:57.166Z,2.63
2023-04-14T03:26:28.525Z,2.67
2023-04-14T03:28:58.203Z,2.61
2023-04-14T03:31:32.836Z,2.68
2023-04-14T03:34:04.059Z,2.75
2023-04-14T03:36:32.845Z,2.76
2023-04-14T03:39:03.307Z,2.81
2023-04-14T03:41:36.047Z,2.71
2023-04-14T03:44:05.699Z,2.70
2023-04-14T03:46:33.451Z,2.68
2023-04-14T03:49:06.756Z,2.67
2023-04-14T03:51:36.178Z,2.63
2023-04-14T03:54:06.831Z,2.64
2023-04-14T03:56:41.093Z,2.69
2023-04-14T03:59:12.517Z,2.64
2023-04-14T04:01:42.031Z,2.64
2023-04-14T04:04:11.083Z,2.67
2023-04-14T04:06:40.727Z,2.70
2023-04-14T04:09:10.400Z,2.72
2023-04-14T04:11:41.290Z,2.66
2023-04-14T04:14:10.762Z,2.69
2023-04-14T04:16:41.293Z,2.60
2023-04-14T04:19:11.607Z,2.59
2023-04-14T04:21:41.668Z,2.60
2023-04-14T04:24:11.408Z,2.67
2023-04-14T04:26:40.702Z,2.55
2023-04-14T04:29:09.023Z,2.53
2023-04-14T04:31:37.275Z,2.57
2023-04-14T04:34:06.965Z,2.62
2023-04-14T04:36:35.877Z,2.64
2023-04-14T04:39:04.343Z,2.60
2023-04-14T04:41:32.432Z,2.58
2023-04-14T04:44:01.764Z,2.66
2023-04-14T04:46:54.089Z,2.60
2023-04-14T04:49:22.715Z,2.70
2023-04-14T04:51:50.680Z,2.63
2023-04-14T04:54:18.614Z,2.71
2023-04-14T04:56:46.359Z,2.84
2023-04-14T04:59:15.473Z,2.85
2023-04-14T05:01:43.247Z,2.82
2023-04-14T05:04:11.670Z,3.07
2023-04-14T05:06:39.399Z,3.27
2023-04-14T05:09:07.621Z,3.61
2023-04-14T05:11:35.537Z,3.80
2023-04-14T05:14:03.677Z,3.51
2023-04-14T05:16:33.413Z,3.50
2023-04-14T05:19:01.457Z,3.66
2023-04-14T05:21:29.497Z,3.73
2023-04-14T05:23:57.361Z,3.73
2023-04-14T05:28:55.766Z,3.90
2023-04-14T05:31:23.576Z,3.97
2023-04-14T05:33:52.603Z,3.97
2023-04-14T05:36:20.708Z,4.02
2023-04-14T05:38:48.385Z,3.81
2023-04-14T05:41:16.336Z,3.87
2023-04-14T05:43:44.003Z,4.11
2023-04-14T05:46:13.522Z,4.38
2023-04-14T05:48:41.505Z,4.38
2023-04-14T05:51:10.521Z,4.62
2023-04-14T05:53:38.156Z,4.74
2023-04-14T05:56:06.466Z,4.83
2023-04-14T05:58:34.245Z,5.00
2023-04-14T06:01:03.907Z,5.01
2023-04-14T06:03:31.780Z,5.14
2023-04-14T06:05:59.590Z,5.18
2023-04-14T06:08:30.319Z,5.46
2023-04-14T06:10:57.931Z,5.56
2023-04-14T06:13:25.752Z,5.89
2023-04-14T06:15:53.730Z,6.16
2023-04-14T06:18:22.750Z,6.56
2023-04-14T06:20:50.493Z,6.74
2023-04-14T06:23:18.260Z,6.90
2023-04-14T06:25:47.921Z,7.06
2023-04-14T06:28:15.677Z,7.47
2023-04-14T06:30:43.414Z,7.53
2023-04-14T06:33:11.494Z,7.76
2023-04-14T06:35:39.358Z,7.61
2023-04-14T06:38:07.199Z,7.84
2023-04-14T06:40:34.868Z,8.21
2023-04-14T06:43:04.144Z,8.11
2023-04-14T06:45:31.970Z,8.36
2023-04-14T06:47:59.801Z,8.66
2023-04-14T06:50:27.509Z,9.11
2023-04-14T06:52:55.307Z,9.46
2023-04-14T06:55:23.069Z,9.42
2023-04-14T06:57:50.738Z,9.35
2023-04-14T07:00:20.358Z,9.64
2023-04-14T07:02:48.174Z,9.75
2023-04-14T07:05:17.245Z,10.01
2023-04-14T07:07:45.068Z,10.29
2023-04-14T07:10:12.805Z,10.54
2023-04-14T07:12:40.434Z,10.89
2023-04-14T07:15:09.218Z,10.85
2023-04-14T07:17:38.334Z,11.39
2023-04-14T07:20:07.272Z,11.61
2023-04-14T07:22:35.042Z,11.57
2023-04-14T07:25:02.833Z,11.26
2023-04-14T07:27:31.783Z,11.50
2023-04-14T07:29:59.655Z,11.87
2023-04-14T07:32:27.429Z,11.99
2023-04-14T07:34:59.099Z,12.41
2023-04-14T07:37:27.228Z,12.75
2023-04-14T07:39:54.874Z,12.87
2023-04-14T07:42:22.574Z,13.29
2023-04-14T07:44:51.854Z,13.80
2023-04-14T07:47:19.580Z,13.84
2023-04-14T07:49:47.319Z,14.38
2023-04-14T07:52:16.594Z,14.64
2023-04-14T07:54:45.764Z,14.21
2023-04-14T07:57:14.159Z,13.97
2023-04-14T07:59:42.869Z,14.43
2023-04-14T08:02:11.426Z,15.31
2023-04-14T08:04:39.329Z,15.85
2023-04-14T08:07:07.524Z,15.04
2023-04-14T08:09:36.474Z,14.96
2023-04-14T08:12:04.342Z,15.30
2023-04-14T08:14:31.945Z,14.17
2023-04-14T08:16:59.629Z,14.27
2023-04-14T08:19:27.447Z,14.08
2023-04-14T08:21:55.665Z,13.68
2023-04-14T08:24:23.324Z,13.96
2023-04-14T08:26:52.548Z,14.13
2023-04-14T08:29:21.289Z,14.84
2023-04-14T08:31:48.964Z,14.48
2023-04-14T08:34:21.133Z,15.14
2023-04-14T08:36:56.518Z,15.39
2023-04-14T08:39:24.495Z,15.70
2023-04-14T08:41:54.518Z,15.68
2023-04-14T08:44:22.944Z,15.86
2023-04-14T08:46:52.611Z,16.67
2023-04-14T08:49:29.490Z,16.12
2023-04-14T08:51:59.802Z,16.57
2023-04-14T08:54:28.430Z,15.79
2023-04-14T08:56:58.634Z,16.62
2023-04-14T08:59:28.633Z,16.44
2023-04-14T09:01:57.003Z,17.05
2023-04-14T09:04:25.835Z,16.89
2023-04-14T09:06:54.015Z,16.46
2023-04-14T09:09:22.294Z,16.88
2023-04-14T09:11:51.263Z,15.96
2023-04-14T09:14:20.871Z,16.14
2023-04-14T09:16:51.455Z,16.78
2023-04-14T09:19:19.364Z,16.28
2023-04-14T09:21:51.397Z,16.30
2023-04-14T09:24:23.930Z,15.95
2023-04-14T09:26:52.043Z,15.82
2023-04-14T09:29:21.158Z,17.20
2023-04-14T09:31:49.187Z,17.30
2023-04-14T09:34:18.740Z,17.78
2023-04-14T09:37:02.372Z,17.92
2023-04-14T09:39:31.259Z,17.73
2023-04-14T09:41:59.522Z,17.11
2023-04-14T09:44:28.820Z,16.99
2023-04-14T09:47:01.311Z,17.43
2023-04-14T09:49:29.994Z,17.52
2023-04-14T09:52:05.562Z,18.14
2023-04-14T09:54:33.381Z,18.31
2023-04-14T09:57:01.234Z,18.49
2023-04-14T09:59:34.402Z,18.59
2023-04-14T10:02:06.088Z,18.12
2023-04-14T10:04:34.348Z,17.87
2023-04-14T10:07:02.716Z,18.36
2023-04-14T10:09:31.042Z,17.89
2023-04-14T10:12:10.598Z,18.15
2023-04-14T10:14:40.549Z,17.95
2023-04-14T10:17:08.559Z,18.93
2023-04-14T10:19:37.749Z,18.59
2023-04-14T10:22:06.691Z,18.80
2023-04-14T10:24:34.570Z,19.02
2023-04-14T10:27:04.807Z,18.04
2023-04-14T10:29:32.716Z,18.51
2023-04-14T10:32:06.168Z,18.11
2023-04-14T10:34:34.658Z,17.07
2023-04-14T10:37:15.722Z,16.65
2023-04-14T10:39:43.907Z,16.30
2023-04-14T10:42:11.771Z,16.39
2023-04-14T10:44:40.132Z,16.56
2023-04-14T10:47:09.336Z,17.20
2023-04-14T10:49:38.364Z,17.96
2023-04-14T10:52:08.116Z,18.06
2023-04-14T10:54:50.380Z,17.76
2023-04-14T10:57:19.179Z,17.67
2023-04-14T10:59:48.528Z,16.98
2023-04-14T11:02:29.865Z,16.64
2023-04-14T11:05:04.783Z,16.34
2023-04-14T11:07:38.125Z,15.87
2023-04-14T11:10:27.707Z,15.88
2023-04-14T11:12:57.606Z,16.00
2023-04-14T11:15:25.565Z,16.02
2023-04-14T11:17:55.424Z,15.83
2023-04-14T11:20:23.933Z,15.96
2023-04-14T11:22:54.058Z,15.91
2023-04-14T11:25:24.756Z,15.86
2023-04-14T11:27:53.113Z,15.78
2023-04-14T11:30:22.391Z,15.22
2023-04-14T11:32:51.762Z,15.11
2023-04-14T11:35:22.027Z,15.24
2023-04-14T11:37:49.775Z,15.06
2023-04-14T11:40:17.411Z,15.53
2023-04-14T11:42:46.487Z,15.97
2023-04-14T11:45:16.307Z,15.83
2023-04-14T11:47:48.989Z,15.73
2023-04-14T11:50:18.482Z,15.71
2023-04-14T11:52:48.706Z,15.80
2023-04-14T11:55:17.602Z,15.66
2023-04-14T11:57:46.094Z,15.78
2023-04-14T12:00:14.900Z,15.65
2023-04-14T12:02:45.290Z,15.46
2023-04-14T12:05:14.924Z,16.09
2023-04-14T12:07:44.493Z,15.82
2023-04-14T12:10:13.648Z,15.73
2023-04-14T12:12:41.628Z,15.88
2023-04-14T12:15:10.594Z,15.74
2023-04-14T12:17:38.707Z,16.14
2023-04-14T12:20:07.790Z,16.22
2023-04-14T12:22:35.747Z,16.49
2023-04-14T12:25:13.407Z,16.16
2023-04-14T12:27:41.195Z,15.98
2023-04-14T12:30:10.656Z,15.42
2023-04-14T12:32:42.004Z,15.66
2023-04-14T12:35:10.902Z,16.19
2023-04-14T12:37:41.327Z,16.20
2023-04-14T12:40:11.398Z,16.01
2023-04-14T12:42:49.627Z,15.85
2023-04-14T12:45:18.130Z,15.97
2023-04-14T12:47:56.681Z,15.77
2023-04-14T12:50:28.012Z,15.53
2023-04-14T12:52:56.850Z,14.65
2023-04-14T12:55:27.481Z,15.16
2023-04-14T12:57:57.223Z,15.51
2023-04-14T13:00:27.094Z,15.78
2023-04-14T13:02:55.547Z,15.92
2023-04-14T13:05:23.924Z,15.96
2023-04-14T13:07:51.584Z,15.61
2023-04-14T13:10:19.703Z,15.49
2023-04-14T13:12:47.399Z,15.47
2023-04-14T13:15:32.586Z,15.75
2023-04-14T13:18:04.500Z,15.58
2023-04-14T13:20:32.412Z,15.80
2023-04-14T13:23:00.048Z,15.77
2023-04-14T13:25:27.754Z,15.95
2023-04-14T13:27:55.433Z,15.87
2023-04-14T13:30:24.553Z,15.24
2023-04-14T13:32:52.665Z,15.64
2023-04-14T13:35:20.506Z,15.92
2023-04-14T13:37:48.483Z,15.83
2023-04-14T13:40:16.697Z,15.85
2023-04-14T13:42:45.372Z,16.08
2023-04-14T13:45:13.021Z,15.77
2023-04-14T13:47:42.156Z,15.89
2023-04-14T13:50:10.674Z,16.76
2023-04-14T13:52:38.451Z,15.57
2023-04-14T13:55:06.817Z,16.64
2023-04-14T13:57:34.431Z,17.02
2023-04-14T14:00:02.163Z,16.89
2023-04-14T14:02:30.172Z,16.84
2023-04-14T14:04:59.533Z,17.32
2023-04-14T14:07:27.664Z,16.80
2023-04-14T14:09:55.571Z,15.73
2023-04-14T14:12:23.592Z,15.19
2023-04-14T14:14:51.319Z,15.87
2023-04-14T14:17:19.090Z,15.92
2023-04-14T14:19:46.902Z,15.99
2023-04-14T14:22:16.053Z,15.01
2023-04-14T14:24:43.720Z,15.17
2023-04-14T14:27:12.326Z,15.33
2023-04-14T14:29:40.103Z,15.78
2023-04-14T14:32:07.741Z,16.21
2023-04-14T14:34:35.469Z,16.27
2023-04-14T14:37:03.133Z,16.91
2023-04-14T14:39:32.603Z,17.82
2023-04-14T14:42:00.437Z,17.79
2023-04-14T14:44:28.169Z,17.59
2023-04-14T14:46:56.648Z,17.85
2023-04-14T14:49:24.397Z,17.86
2023-04-14T14:51:52.197Z,17.61
2023-04-14T14:54:19.959Z,18.58
2023-04-14T14:56:48.974Z,18.37
2023-04-14T14:59:16.691Z,18.28
2023-04-14T15:01:46.128Z,18.10
2023-04-14T15:04:14.162Z,18.39
2023-04-14T15:06:41.808Z,18.73
2023-04-14T15:09:10.245Z,18.26
2023-04-14T15:11:37.905Z,17.20
2023-04-14T15:14:08.152Z,17.34
2023-04-14T15:16:35.883Z,17.29
2023-04-14T15:19:04.048Z,17.01
2023-04-14T15:21:32.662Z,16.92
2023-04-14T15:24:00.849Z,16.95
2023-04-14T15:26:28.862Z,17.49
2023-04-14T15:28:56.497Z,18.26
2023-04-14T15:31:25.628Z,18.17
2023-04-14T15:33:54.720Z,17.86
2023-04-14T15:36:22.776Z,17.84
2023-04-14T15:38:50.745Z,17.41
2023-04-14T15:41:18.740Z,17.11
2023-04-14T15:43:46.550Z,17.21
2023-04-14T15:46:14.880Z,17.33
2023-04-14T15:48:44.113Z,17.15
2023-04-14T15:51:11.945Z,17.09
2023-04-14T15:53:39.530Z,17.33
2023-04-14T15:56:07.567Z,17.50
2023-04-14T15:58:35.386Z,17.49
2023-04-14T16:01:07.615Z,17.09
2023-04-14T16:03:37.883Z,16.99
2023-04-14T16:06:08.187Z,16.97
2023-04-14T16:08:36.357Z,17.24
2023-04-14T16:11:04.078Z,16.87
2023-04-14T16:13:31.795Z,16.47
2023-04-14T16:15:59.599Z,16.71
2023-04-14T16:18:27.531Z,16.36
2023-04-14T16:20:55.281Z,16.42
2023-04-14T16:23:24.585Z,16.48
2023-04-14T16:25:52.517Z,16.58
2023-04-14T16:28:21.831Z,16.52
2023-04-14T16:30:49.739Z,16.60
2023-04-14T16:33:17.407Z,16.34
2023-04-14T16:35:45.140Z,16.49
2023-04-14T16:38:12.979Z,16.37
2023-04-14T16:40:42.783Z,16.27
2023-04-14T16:43:10.502Z,16.21
2023-04-14T16:45:38.231Z,16.30
2023-04-14T16:48:06.221Z,16.17
2023-04-14T16:50:38.096Z,16.08
2023-04-14T16:53:05.754Z,15.96
2023-04-14T16:55:34.959Z,16.00
2023-04-14T16:58:04.418Z,15.92
2023-04-14T17:00:32.541Z,16.05
2023-04-14T17:03:00.543Z,15.95
2023-04-14T17:05:28.404Z,15.81
2023-04-14T17:07:56.156Z,15.68
2023-04-14T17:10:26.170Z,15.47
2023-04-14T17:12:54.354Z,15.64
2023-04-14T17:15:23.584Z,15.67
2023-04-14T17:17:51.371Z,15.80
2023-04-14T17:20:19.989Z,15.66
2023-04-14T17:22:50.160Z,15.64
2023-04-14T17:25:20.564Z,15.44
2023-04-14T17:27:48.822Z,15.10
2023-04-14T17:30:16.500Z,14.98
2023-04-14T17:32:45.938Z,14.83
2023-04-14T17:35:13.863Z,14.70
2023-04-14T17:37:41.669Z,14.61
2023-04-14T17:40:10.711Z,14.62
2023-04-14T17:42:38.868Z,14.57
2023-04-14T17:45:08.945Z,14.77
2023-04-14T17:47:38.061Z,14.69
2023-04-14T17:50:09.212Z,14.55
2023-04-14T17:52:37.338Z,14.35
2023-04-14T17:55:07.113Z,14.46
2023-04-14T17:57:34.746Z,14.40
2023-04-14T18:00:04.058Z,14.52
2023-04-14T18:02:32.986Z,14.29
2023-04-14T18:05:01.432Z,14.11
2023-04-14T18:07:31.449Z,13.86
2023-04-14T18:09:59.507Z,13.49
2023-04-14T18:12:27.648Z,13.35
2023-04-14T18:14:55.324Z,13.31
2023-04-14T18:17:23.605Z,12.76
2023-04-14T18:19:51.384Z,12.38
2023-04-14T18:22:19.446Z,12.05
2023-04-14T18:24:48.643Z,11.77
2023-04-14T18:29:47.690Z,11.45
2023-04-14T18:32:15.496Z,11.34
2023-04-14T18:34:43.146Z,11.14
2023-04-14T18:37:10.965Z,11.07
2023-04-14T18:39:38.701Z,10.94
2023-04-14T18:42:07.826Z,10.91
2023-04-14T18:44:35.619Z,10.85
2023-04-14T18:47:03.500Z,10.52
2023-04-14T18:49:31.319Z,10.60
2023-04-14T18:51:59.175Z,10.29
2023-04-14T18:54:27.028Z,10.19
2023-04-14T18:56:54.934Z,10.10
2023-04-14T18:59:26.100Z,10.09
2023-04-14T19:01:54.057Z,10.09
2023-04-14T19:04:22.050Z,9.87
2023-04-14T19:06:50.406Z,9.68
2023-04-14T19:09:18.478Z,9.62
2023-04-14T19:11:47.881Z,9.56
2023-04-14T19:14:15.897Z,9.42
2023-04-14T19:16:45.265Z,9.42
2023-04-14T19:19:13.088Z,9.35
2023-04-14T19:21:40.862Z,9.14
2023-04-14T19:24:08.751Z,9.06
2023-04-14T19:26:40.588Z,8.89
2023-04-14T19:29:08.506Z,8.76
2023-04-14T19:31:36.862Z,8.80
2023-04-14T19:34:06.141Z,8.66
2023-04-14T19:36:34.369Z,8.56
2023-04-14T19:39:03.918Z,8.43
2023-04-14T19:41:32.265Z,8.39
2023-04-14T19:44:00.204Z,8.27
2023-04-14T19:46:28.298Z,8.18
2023-04-14T19:48:56.763Z,8.15
2023-04-14T19:51:27.443Z,8.10
2023-04-14T19:53:55.241Z,8.07
2023-04-14T19:56:23.462Z,8.12
2023-04-14T19:58:51.851Z,8.02
2023-04-14T20:01:20.781Z,7.93
2023-04-14T20:04:07.633Z,7.86
2023-04-14T20:06:38.131Z,7.80
2023-04-14T20:09:06.490Z,7.76
2023-04-14T20:11:34.195Z,7.75
2023-04-14T20:14:02.688Z,7.52
2023-04-14T20:16:30.530Z,7.47
2023-04-14T20:18:58.206Z,7.47
2023-04-14T20:21:25.909Z,7.36
2023-04-14T20:23:54.957Z,7.36
2023-04-14T20:26:23.393Z,7.29
2023-04-14T20:28:51.093Z,7.18
2023-04-14T20:31:19.126Z,7.16
2023-04-14T20:33:47.174Z,7.12
2023-04-14T20:36:16.323Z,7.07
2023-04-14T20:38:43.971Z,7.07
2023-04-14T20:41:12.931Z,7.03
2023-04-14T20:43:43.416Z,6.91
2023-04-14T20:46:11.148Z,7.00
2023-04-14T20:48:38.943Z,6.93
2023-04-14T20:51:06.666Z,6.79
2023-04-14T20:53:35.084Z,6.84
2023-04-14T20:56:03.058Z,6.62
2023-04-14T20:58:32.070Z,6.63
2023-04-14T21:01:00.238Z,6.53
2023-04-14T21:03:29.137Z,6.49
2023-04-14T21:05:57.074Z,6.49
2023-04-14T21:08:24.840Z,6.35
2023-04-14T21:11:16.031Z,6.44
2023-04-14T21:15:29.876Z,6.46
2023-04-14T21:16:29.947Z,6.54
2023-04-14T21:18:57.747Z,6.46
2023-04-14T21:21:26.153Z,6.26
2023-04-14T21:23:53.928Z,6.15
2023-04-14T21:26:21.934Z,6.03
2023-04-14T21:28:51.278Z,5.99
2023-04-14T21:31:18.917Z,5.94
2023-04-14T21:33:46.906Z,5.89
2023-04-14T21:36:14.615Z,5.88
2023-04-14T21:38:42.929Z,5.82
2023-04-14T21:41:10.980Z,5.85
2023-04-14T21:43:39.933Z,5.83
2023-04-14T21:46:10.025Z,5.65
2023-04-14T21:48:37.877Z,5.62
2023-04-14T21:51:05.637Z,5.58
2023-04-14T21:53:33.569Z,5.53
2023-04-14T21:56:10.260Z,5.54
2023-04-14T21:58:39.133Z,5.44
2023-04-14T22:01:07.741Z,5.38
2023-04-14T22:03:38.796Z,5.49
2023-04-14T22:06:07.250Z,5.41
2023-04-14T22:08:34.949Z,5.25
2023-04-14T22:11:02.760Z,5.16
2023-04-14T22:13:30.755Z,5.16
2023-04-14T22:15:58.423Z,5.29
2023-04-14T22:18:27.653Z,5.14
2023-04-14T22:20:57.275Z,5.11
2023-04-14T22:23:25.221Z,4.93
2023-04-14T22:25:53.178Z,5.04
2023-04-14T22:28:20.890Z,4.94
2023-04-14T22:30:49.070Z,4.88
2023-04-14T22:33:16.882Z,4.83
2023-04-14T22:35:44.940Z,4.74
2023-04-14T22:38:13.988Z,4.77
2023-04-14T22:40:42.271Z,4.68
2023-04-14T22:43:10.799Z,4.63
2023-04-14T22:45:39.353Z,4.59
2023-04-14T22:48:08.800Z,4.61
2023-04-14T22:50:36.795Z,4.56
2023-04-14T22:53:04.844Z,4.50
2023-04-14T22:55:34.387Z,4.56
2023-04-14T22:58:02.181Z,4.53
2023-04-14T23:00:30.191Z,4.48
2023-04-14T23:02:59.462Z,4.50
2023-04-14T23:05:27.355Z,4.41
2023-04-14T23:07:55.891Z,4.40
2023-04-14T23:10:24.016Z,4.22
2023-04-14T23:12:53.088Z,4.19
2023-04-14T23:15:21.579Z,4.20
2023-04-14T23:17:49.341Z,4.13
2023-04-14T23:20:19.135Z,4.16
2023-04-14T23:22:46.936Z,4.13
2023-04-14T23:25:15.703Z,4.05
2023-04-14T23:27:43.473Z,3.97
2023-04-14T23:30:13.141Z,3.97
2023-04-14T23:32:40.922Z,3.98
2023-04-14T23:35:10.286Z,3.99
2023-04-14T23:37:38.853Z,3.93
2023-04-14T23:40:08.064Z,4.01
2023-04-14T23:42:35.731Z,3.87
2023-04-14T23:45:03.426Z,3.84
2023-04-14T23:47:32.549Z,3.82
2023-04-14T23:50:00.256Z,3.74
2023-04-14T23:52:28.072Z,3.71
2023-04-14T23:54:55.771Z,3.71
2023-04-14T23:57:24.564Z,3.70
2023-04-14T23:59:52.869Z,3.58
